sensor_id;sensor_type;location;lat;lon;timestamp;P1;durP1;ratioP1;P2;durP2;ratioP2
17987;SDS011;9119;50.932;5.342;2023-06-14T00:02:04;13.03;;;6.17;;
17987;SDS011;9119;50.932;5.342;2023-06-14T00:04:33;11.57;;;6.47;;
17987;SDS011;9119;50.932;5.342;2023-06-14T00:06:58;9.33;;;6.27;;
17987;SDS011;9119;50.932;5.342;2023-06-14T00:09:24;7.87;;;5.93;;
17987;SDS011;9119;50.932;5.342;2023-06-14T00:11:50;9.23;;;5.73;;
17987;SDS011;9119;50.932;5.342;2023-06-14T00:14:15;12.03;;;6.40;;
17987;SDS011;9119;50.932;5.342;2023-06-14T00:16:41;10.90;;;6.10;;
17987;SDS011;9119;50.932;5.342;2023-06-14T00:19:08;13.03;;;6.17;;
17987;SDS011;9119;50.932;5.342;2023-06-14T00:21:35;11.33;;;5.97;;
17987;SDS011;9119;50.932;5.342;2023-06-14T00:24:02;9.53;;;6.40;;
17987;SDS011;9119;50.932;5.342;2023-06-14T00:26:29;13.20;;;6.17;;
17987;SDS011;9119;50.932;5.342;2023-06-14T00:28:55;10.77;;;6.33;;
17987;SDS011;9119;50.932;5.342;2023-06-14T00:31:21;11.93;;;6.27;;
17987;SDS011;9119;50.932;5.342;2023-06-14T00:33:47;11.10;;;5.40;;
17987;SDS011;9119;50.932;5.342;2023-06-14T00:36:13;11.80;;;6.20;;
17987;SDS011;9119;50.932;5.342;2023-06-14T00:38:39;12.47;;;6.10;;
17987;SDS011;9119;50.932;5.342;2023-06-14T00:41:04;9.07;;;6.50;;
17987;SDS011;9119;50.932;5.342;2023-06-14T00:43:30;13.80;;;6.27;;
17987;SDS011;9119;50.932;5.342;2023-06-14T00:45:56;9.00;;;6.10;;
17987;SDS011;9119;50.932;5.342;2023-06-14T00:48:22;11.90;;;6.17;;
17987;SDS011;9119;50.932;5.342;2023-06-14T00:50:51;9.80;;;6.03;;
17987;SDS011;9119;50.932;5.342;2023-06-14T00:53:17;9.87;;;5.80;;
17987;SDS011;9119;50.932;5.342;2023-06-14T00:55:45;13.43;;;6.20;;
17987;SDS011;9119;50.932;5.342;2023-06-14T00:58:11;9.70;;;6.00;;
17987;SDS011;9119;50.932;5.342;2023-06-14T01:00:38;13.10;;;6.00;;
17987;SDS011;9119;50.932;5.342;2023-06-14T01:03:07;15.40;;;6.30;;
17987;SDS011;9119;50.932;5.342;2023-06-14T01:05:37;9.57;;;6.37;;
17987;SDS011;9119;50.932;5.342;2023-06-14T01:10:56;13.37;;;6.53;;
17987;SDS011;9119;50.932;5.342;2023-06-14T01:13:32;9.67;;;6.43;;
17987;SDS011;9119;50.932;5.342;2023-06-14T01:16:00;18.60;;;6.97;;
17987;SDS011;9119;50.932;5.342;2023-06-14T01:18:30;10.07;;;6.60;;
17987;SDS011;9119;50.932;5.342;2023-06-14T01:20:57;12.57;;;6.60;;
17987;SDS011;9119;50.932;5.342;2023-06-14T01:23:23;10.67;;;6.63;;
17987;SDS011;9119;50.932;5.342;2023-06-14T01:25:50;12.77;;;6.37;;
17987;SDS011;9119;50.932;5.342;2023-06-14T01:28:19;12.37;;;6.90;;
17987;SDS011;9119;50.932;5.342;2023-06-14T01:30:47;13.80;;;7.13;;
17987;SDS011;9119;50.932;5.342;2023-06-14T01:33:19;12.83;;;7.20;;
17987;SDS011;9119;50.932;5.342;2023-06-14T01:35:47;8.63;;;6.30;;
17987;SDS011;9119;50.932;5.342;2023-06-14T01:38:14;13.63;;;6.90;;
17987;SDS011;9119;50.932;5.342;2023-06-14T01:40:45;10.97;;;6.57;;
17987;SDS011;9119;50.932;5.342;2023-06-14T01:43:13;11.43;;;7.27;;
17987;SDS011;9119;50.932;5.342;2023-06-14T01:45:42;17.30;;;7.37;;
17987;SDS011;9119;50.932;5.342;2023-06-14T01:48:12;18.17;;;7.20;;
17987;SDS011;9119;50.932;5.342;2023-06-14T01:50:37;11.63;;;6.73;;
17987;SDS011;9119;50.932;5.342;2023-06-14T01:53:06;14.83;;;6.97;;
17987;SDS011;9119;50.932;5.342;2023-06-14T01:55:33;13.97;;;6.60;;
17987;SDS011;9119;50.932;5.342;2023-06-14T01:58:02;12.47;;;6.53;;
17987;SDS011;9119;50.932;5.342;2023-06-14T02:00:29;14.27;;;6.77;;
17987;SDS011;9119;50.932;5.342;2023-06-14T02:02:54;12.30;;;7.50;;
17987;SDS011;9119;50.932;5.342;2023-06-14T02:05:20;12.13;;;7.10;;
17987;SDS011;9119;50.932;5.342;2023-06-14T02:07:46;14.43;;;6.87;;
17987;SDS011;9119;50.932;5.342;2023-06-14T02:10:12;19.17;;;7.30;;
17987;SDS011;9119;50.932;5.342;2023-06-14T02:12:40;16.93;;;6.97;;
17987;SDS011;9119;50.932;5.342;2023-06-14T02:15:06;10.47;;;7.20;;
17987;SDS011;9119;50.932;5.342;2023-06-14T02:17:32;16.73;;;7.60;;
17987;SDS011;9119;50.932;5.342;2023-06-14T02:19:59;20.00;;;7.07;;
17987;SDS011;9119;50.932;5.342;2023-06-14T02:22:25;15.57;;;7.70;;
17987;SDS011;9119;50.932;5.342;2023-06-14T02:24:51;17.07;;;7.73;;
17987;SDS011;9119;50.932;5.342;2023-06-14T02:27:17;12.60;;;7.90;;
17987;SDS011;9119;50.932;5.342;2023-06-14T02:29:43;17.77;;;7.63;;
17987;SDS011;9119;50.932;5.342;2023-06-14T02:32:09;11.63;;;7.30;;
17987;SDS011;9119;50.932;5.342;2023-06-14T02:34:35;14.70;;;7.40;;
17987;SDS011;9119;50.932;5.342;2023-06-14T02:37:01;14.13;;;7.43;;
17987;SDS011;9119;50.932;5.342;2023-06-14T02:39:30;15.67;;;7.40;;
17987;SDS011;9119;50.932;5.342;2023-06-14T02:41:56;13.07;;;7.10;;
17987;SDS011;9119;50.932;5.342;2023-06-14T02:44:25;17.30;;;7.60;;
17987;SDS011;9119;50.932;5.342;2023-06-14T02:46:54;12.30;;;6.90;;
17987;SDS011;9119;50.932;5.342;2023-06-14T02:49:21;10.37;;;7.40;;
17987;SDS011;9119;50.932;5.342;2023-06-14T02:51:47;14.40;;;7.37;;
17987;SDS011;9119;50.932;5.342;2023-06-14T02:54:12;13.43;;;7.47;;
17987;SDS011;9119;50.932;5.342;2023-06-14T02:56:38;11.90;;;7.47;;
17987;SDS011;9119;50.932;5.342;2023-06-14T02:59:04;18.03;;;7.40;;
17987;SDS011;9119;50.932;5.342;2023-06-14T03:01:30;13.83;;;7.70;;
17987;SDS011;9119;50.932;5.342;2023-06-14T03:04:06;12.20;;;7.10;;
17987;SDS011;9119;50.932;5.342;2023-06-14T03:06:32;13.73;;;8.13;;
17987;SDS011;9119;50.932;5.342;2023-06-14T03:08:58;16.97;;;7.33;;
17987;SDS011;9119;50.932;5.342;2023-06-14T03:11:26;14.63;;;7.67;;
17987;SDS011;9119;50.932;5.342;2023-06-14T03:13:52;14.00;;;7.73;;
17987;SDS011;9119;50.932;5.342;2023-06-14T03:16:18;13.50;;;7.87;;
17987;SDS011;9119;50.932;5.342;2023-06-14T03:18:47;14.57;;;8.03;;
17987;SDS011;9119;50.932;5.342;2023-06-14T03:21:16;16.33;;;7.47;;
17987;SDS011;9119;50.932;5.342;2023-06-14T03:23:43;18.10;;;8.10;;
17987;SDS011;9119;50.932;5.342;2023-06-14T03:26:09;17.47;;;8.37;;
17987;SDS011;9119;50.932;5.342;2023-06-14T03:28:39;15.60;;;8.13;;
17987;SDS011;9119;50.932;5.342;2023-06-14T03:31:05;16.73;;;7.77;;
17987;SDS011;9119;50.932;5.342;2023-06-14T03:33:31;14.07;;;8.40;;
17987;SDS011;9119;50.932;5.342;2023-06-14T03:35:57;22.53;;;8.30;;
17987;SDS011;9119;50.932;5.342;2023-06-14T03:38:23;13.60;;;8.03;;
17987;SDS011;9119;50.932;5.342;2023-06-14T03:40:48;16.97;;;8.20;;
17987;SDS011;9119;50.932;5.342;2023-06-14T03:43:14;18.43;;;8.80;;
17987;SDS011;9119;50.932;5.342;2023-06-14T03:45:40;15.57;;;8.07;;
17987;SDS011;9119;50.932;5.342;2023-06-14T03:48:06;15.50;;;8.83;;
17987;SDS011;9119;50.932;5.342;2023-06-14T03:50:33;16.57;;;8.63;;
17987;SDS011;9119;50.932;5.342;2023-06-14T03:52:59;15.87;;;8.30;;
17987;SDS011;9119;50.932;5.342;2023-06-14T03:55:26;17.73;;;8.40;;
17987;SDS011;9119;50.932;5.342;2023-06-14T03:57:52;15.67;;;8.33;;
17987;SDS011;9119;50.932;5.342;2023-06-14T04:00:18;14.87;;;8.73;;
17987;SDS011;9119;50.932;5.342;2023-06-14T04:02:44;18.00;;;7.87;;
17987;SDS011;9119;50.932;5.342;2023-06-14T04:05:10;16.53;;;7.97;;
17987;SDS011;9119;50.932;5.342;2023-06-14T04:07:36;15.93;;;8.30;;
17987;SDS011;9119;50.932;5.342;2023-06-14T04:10:14;14.67;;;8.43;;
17987;SDS011;9119;50.932;5.342;2023-06-14T04:12:41;19.43;;;7.90;;
17987;SDS011;9119;50.932;5.342;2023-06-14T04:15:07;15.53;;;7.70;;
17987;SDS011;9119;50.932;5.342;2023-06-14T04:17:36;19.43;;;8.70;;
17987;SDS011;9119;50.932;5.342;2023-06-14T04:20:02;19.97;;;9.43;;
17987;SDS011;9119;50.932;5.342;2023-06-14T04:22:31;16.33;;;8.67;;
17987;SDS011;9119;50.932;5.342;2023-06-14T04:24:57;13.67;;;8.03;;
17987;SDS011;9119;50.932;5.342;2023-06-14T04:27:23;17.80;;;8.23;;
17987;SDS011;9119;50.932;5.342;2023-06-14T04:29:51;15.80;;;8.07;;
17987;SDS011;9119;50.932;5.342;2023-06-14T04:32:27;17.30;;;8.30;;
17987;SDS011;9119;50.932;5.342;2023-06-14T04:34:58;17.07;;;8.60;;
17987;SDS011;9119;50.932;5.342;2023-06-14T04:37:28;12.33;;;7.93;;
17987;SDS011;9119;50.932;5.342;2023-06-14T04:39:55;18.77;;;8.83;;
17987;SDS011;9119;50.932;5.342;2023-06-14T04:42:22;21.23;;;8.63;;
17987;SDS011;9119;50.932;5.342;2023-06-14T04:44:50;15.40;;;8.33;;
17987;SDS011;9119;50.932;5.342;2023-06-14T04:47:19;17.83;;;8.67;;
17987;SDS011;9119;50.932;5.342;2023-06-14T04:49:46;21.60;;;8.17;;
17987;SDS011;9119;50.932;5.342;2023-06-14T04:52:11;15.87;;;7.87;;
17987;SDS011;9119;50.932;5.342;2023-06-14T04:54:38;17.53;;;8.60;;
17987;SDS011;9119;50.932;5.342;2023-06-14T04:57:07;18.27;;;8.40;;
17987;SDS011;9119;50.932;5.342;2023-06-14T04:59:39;20.63;;;8.60;;
17987;SDS011;9119;50.932;5.342;2023-06-14T05:02:05;13.67;;;7.77;;
17987;SDS011;9119;50.932;5.342;2023-06-14T05:04:32;14.77;;;7.97;;
17987;SDS011;9119;50.932;5.342;2023-06-14T05:06:58;18.40;;;8.23;;
17987;SDS011;9119;50.932;5.342;2023-06-14T05:09:24;20.17;;;8.03;;
17987;SDS011;9119;50.932;5.342;2023-06-14T05:11:50;88.20;;;17.83;;
17987;SDS011;9119;50.932;5.342;2023-06-14T05:14:16;19.40;;;8.60;;
17987;SDS011;9119;50.932;5.342;2023-06-14T05:16:42;20.47;;;7.50;;
17987;SDS011;9119;50.932;5.342;2023-06-14T05:19:08;23.97;;;8.10;;
17987;SDS011;9119;50.932;5.342;2023-06-14T05:21:35;16.67;;;7.63;;
17987;SDS011;9119;50.932;5.342;2023-06-14T05:24:02;20.90;;;8.03;;
17987;SDS011;9119;50.932;5.342;2023-06-14T05:26:28;18.10;;;8.00;;
17987;SDS011;9119;50.932;5.342;2023-06-14T05:28:57;14.63;;;7.80;;
17987;SDS011;9119;50.932;5.342;2023-06-14T05:31:23;16.60;;;7.90;;
17987;SDS011;9119;50.932;5.342;2023-06-14T05:33:51;17.63;;;7.83;;
17987;SDS011;9119;50.932;5.342;2023-06-14T05:36:17;15.27;;;7.67;;
17987;SDS011;9119;50.932;5.342;2023-06-14T05:38:44;17.53;;;8.00;;
17987;SDS011;9119;50.932;5.342;2023-06-14T05:41:10;16.97;;;7.33;;
17987;SDS011;9119;50.932;5.342;2023-06-14T05:43:36;16.83;;;7.57;;
17987;SDS011;9119;50.932;5.342;2023-06-14T05:46:02;26.53;;;8.17;;
17987;SDS011;9119;50.932;5.342;2023-06-14T05:48:28;16.07;;;7.60;;
17987;SDS011;9119;50.932;5.342;2023-06-14T05:50:54;13.63;;;7.60;;
17987;SDS011;9119;50.932;5.342;2023-06-14T05:53:20;17.13;;;8.57;;
17987;SDS011;9119;50.932;5.342;2023-06-14T05:55:45;14.97;;;7.90;;
17987;SDS011;9119;50.932;5.342;2023-06-14T05:58:11;17.30;;;7.70;;
17987;SDS011;9119;50.932;5.342;2023-06-14T06:00:38;23.10;;;8.37;;
17987;SDS011;9119;50.932;5.342;2023-06-14T06:03:04;20.60;;;7.43;;
17987;SDS011;9119;50.932;5.342;2023-06-14T06:05:33;12.93;;;7.53;;
17987;SDS011;9119;50.932;5.342;2023-06-14T06:07:59;15.50;;;7.83;;
17987;SDS011;9119;50.932;5.342;2023-06-14T06:10:25;16.87;;;8.07;;
17987;SDS011;9119;50.932;5.342;2023-06-14T06:12:51;25.80;;;8.30;;
17987;SDS011;9119;50.932;5.342;2023-06-14T06:15:17;18.37;;;7.47;;
17987;SDS011;9119;50.932;5.342;2023-06-14T06:17:43;15.90;;;7.80;;
17987;SDS011;9119;50.932;5.342;2023-06-14T06:20:09;15.40;;;7.50;;
17987;SDS011;9119;50.932;5.342;2023-06-14T06:22:36;13.67;;;7.03;;
17987;SDS011;9119;50.932;5.342;2023-06-14T06:25:03;15.87;;;7.33;;
17987;SDS011;9119;50.932;5.342;2023-06-14T06:27:29;12.43;;;8.10;;
17987;SDS011;9119;50.932;5.342;2023-06-14T06:29:54;17.90;;;8.37;;
17987;SDS011;9119;50.932;5.342;2023-06-14T06:32:20;15.00;;;7.87;;
17987;SDS011;9119;50.932;5.342;2023-06-14T06:34:46;10.27;;;7.33;;
17987;SDS011;9119;50.932;5.342;2023-06-14T06:37:12;16.90;;;7.80;;
17987;SDS011;9119;50.932;5.342;2023-06-14T06:39:38;14.03;;;7.70;;
17987;SDS011;9119;50.932;5.342;2023-06-14T06:42:04;15.60;;;7.27;;
17987;SDS011;9119;50.932;5.342;2023-06-14T06:44:31;15.73;;;7.10;;
17987;SDS011;9119;50.932;5.342;2023-06-14T06:46:57;17.17;;;7.00;;
17987;SDS011;9119;50.932;5.342;2023-06-14T06:49:23;20.53;;;8.00;;
17987;SDS011;9119;50.932;5.342;2023-06-14T06:51:58;14.80;;;7.17;;
17987;SDS011;9119;50.932;5.342;2023-06-14T06:54:26;15.93;;;6.87;;
17987;SDS011;9119;50.932;5.342;2023-06-14T06:56:52;16.27;;;6.73;;
17987;SDS011;9119;50.932;5.342;2023-06-14T06:59:17;14.87;;;7.07;;
17987;SDS011;9119;50.932;5.342;2023-06-14T07:01:43;21.87;;;7.90;;
17987;SDS011;9119;50.932;5.342;2023-06-14T07:04:09;17.73;;;7.03;;
17987;SDS011;9119;50.932;5.342;2023-06-14T07:06:34;22.07;;;7.70;;
17987;SDS011;9119;50.932;5.342;2023-06-14T07:09:00;18.57;;;7.57;;
17987;SDS011;9119;50.932;5.342;2023-06-14T07:11:27;20.43;;;7.83;;
17987;SDS011;9119;50.932;5.342;2023-06-14T07:13:52;19.43;;;7.70;;
17987;SDS011;9119;50.932;5.342;2023-06-14T07:16:18;13.90;;;7.37;;
17987;SDS011;9119;50.932;5.342;2023-06-14T07:18:44;21.80;;;7.07;;
17987;SDS011;9119;50.932;5.342;2023-06-14T07:21:09;14.17;;;6.63;;
17987;SDS011;9119;50.932;5.342;2023-06-14T07:23:35;14.97;;;7.13;;
17987;SDS011;9119;50.932;5.342;2023-06-14T07:26:01;11.10;;;6.67;;
17987;SDS011;9119;50.932;5.342;2023-06-14T07:28:26;16.83;;;6.43;;
17987;SDS011;9119;50.932;5.342;2023-06-14T07:30:52;12.87;;;6.40;;
17987;SDS011;9119;50.932;5.342;2023-06-14T07:33:18;17.83;;;6.30;;
17987;SDS011;9119;50.932;5.342;2023-06-14T07:35:43;20.00;;;6.73;;
17987;SDS011;9119;50.932;5.342;2023-06-14T07:38:09;10.97;;;5.87;;
17987;SDS011;9119;50.932;5.342;2023-06-14T07:40:35;16.77;;;7.03;;
17987;SDS011;9119;50.932;5.342;2023-06-14T07:43:00;20.50;;;6.77;;
17987;SDS011;9119;50.932;5.342;2023-06-14T07:45:27;14.80;;;6.20;;
17987;SDS011;9119;50.932;5.342;2023-06-14T07:47:53;23.33;;;6.60;;
17987;SDS011;9119;50.932;5.342;2023-06-14T07:50:18;13.07;;;6.30;;
17987;SDS011;9119;50.932;5.342;2023-06-14T07:52:44;13.20;;;6.37;;
17987;SDS011;9119;50.932;5.342;2023-06-14T07:55:10;21.47;;;6.23;;
17987;SDS011;9119;50.932;5.342;2023-06-14T07:57:36;13.70;;;6.20;;
17987;SDS011;9119;50.932;5.342;2023-06-14T08:00:02;12.57;;;6.00;;
17987;SDS011;9119;50.932;5.342;2023-06-14T08:02:31;13.90;;;6.27;;
17987;SDS011;9119;50.932;5.342;2023-06-14T08:04:56;14.90;;;5.30;;
17987;SDS011;9119;50.932;5.342;2023-06-14T08:07:23;19.93;;;6.17;;
17987;SDS011;9119;50.932;5.342;2023-06-14T08:09:49;21.33;;;6.50;;
17987;SDS011;9119;50.932;5.342;2023-06-14T08:12:15;21.23;;;5.97;;
17987;SDS011;9119;50.932;5.342;2023-06-14T08:14:41;16.47;;;5.67;;
17987;SDS011;9119;50.932;5.342;2023-06-14T08:17:07;16.73;;;6.53;;
17987;SDS011;9119;50.932;5.342;2023-06-14T08:19:32;16.73;;;6.30;;
17987;SDS011;9119;50.932;5.342;2023-06-14T08:21:58;15.50;;;5.83;;
17987;SDS011;9119;50.932;5.342;2023-06-14T08:24:25;12.57;;;5.70;;
17987;SDS011;9119;50.932;5.342;2023-06-14T08:26:52;11.87;;;5.60;;
17987;SDS011;9119;50.932;5.342;2023-06-14T08:29:18;11.93;;;5.43;;
17987;SDS011;9119;50.932;5.342;2023-06-14T08:31:44;14.33;;;5.70;;
17987;SDS011;9119;50.932;5.342;2023-06-14T08:34:10;12.93;;;5.90;;
17987;SDS011;9119;50.932;5.342;2023-06-14T08:36:36;11.33;;;5.07;;
17987;SDS011;9119;50.932;5.342;2023-06-14T08:39:01;15.97;;;4.93;;
17987;SDS011;9119;50.932;5.342;2023-06-14T08:41:27;10.83;;;5.50;;
17987;SDS011;9119;50.932;5.342;2023-06-14T08:43:54;15.27;;;5.47;;
17987;SDS011;9119;50.932;5.342;2023-06-14T08:46:21;14.43;;;4.70;;
17987;SDS011;9119;50.932;5.342;2023-06-14T08:48:52;8.20;;;4.73;;
17987;SDS011;9119;50.932;5.342;2023-06-14T08:51:22;16.73;;;5.60;;
17987;SDS011;9119;50.932;5.342;2023-06-14T08:53:55;26.67;;;7.13;;
17987;SDS011;9119;50.932;5.342;2023-06-14T08:56:24;13.60;;;4.93;;
17987;SDS011;9119;50.932;5.342;2023-06-14T08:58:52;13.37;;;5.10;;
17987;SDS011;9119;50.932;5.342;2023-06-14T09:01:19;16.13;;;5.50;;
17987;SDS011;9119;50.932;5.342;2023-06-14T09:03:46;15.73;;;5.40;;
17987;SDS011;9119;50.932;5.342;2023-06-14T09:06:13;11.37;;;5.00;;
17987;SDS011;9119;50.932;5.342;2023-06-14T09:08:43;15.00;;;4.57;;
17987;SDS011;9119;50.932;5.342;2023-06-14T09:11:11;15.43;;;4.70;;
17987;SDS011;9119;50.932;5.342;2023-06-14T09:13:38;14.03;;;4.80;;
17987;SDS011;9119;50.932;5.342;2023-06-14T09:16:04;13.90;;;5.47;;
17987;SDS011;9119;50.932;5.342;2023-06-14T09:21:03;11.47;;;4.80;;
17987;SDS011;9119;50.932;5.342;2023-06-14T09:23:39;14.27;;;4.60;;
17987;SDS011;9119;50.932;5.342;2023-06-14T09:26:06;11.90;;;4.50;;
17987;SDS011;9119;50.932;5.342;2023-06-14T09:28:36;6.10;;;3.90;;
17987;SDS011;9119;50.932;5.342;2023-06-14T09:31:06;14.07;;;4.90;;
17987;SDS011;9119;50.932;5.342;2023-06-14T09:33:34;15.63;;;4.50;;
17987;SDS011;9119;50.932;5.342;2023-06-14T09:36:00;19.30;;;4.33;;
17987;SDS011;9119;50.932;5.342;2023-06-14T09:38:26;11.65;;;4.10;;
17987;SDS011;9119;50.932;5.342;2023-06-14T09:40:52;14.77;;;4.30;;
17987;SDS011;9119;50.932;5.342;2023-06-14T09:43:18;11.43;;;4.38;;
17987;SDS011;9119;50.932;5.342;2023-06-14T09:45:46;11.30;;;3.55;;
17987;SDS011;9119;50.932;5.342;2023-06-14T09:48:13;9.07;;;3.60;;
17987;SDS011;9119;50.932;5.342;2023-06-14T09:50:44;9.88;;;3.95;;
17987;SDS011;9119;50.932;5.342;2023-06-14T09:53:11;10.48;;;3.95;;
17987;SDS011;9119;50.932;5.342;2023-06-14T09:55:38;13.18;;;3.40;;
17987;SDS011;9119;50.932;5.342;2023-06-14T09:58:06;9.07;;;3.95;;
17987;SDS011;9119;50.932;5.342;2023-06-14T10:00:34;7.35;;;4.65;;
17987;SDS011;9119;50.932;5.342;2023-06-14T10:03:44;6.20;;;2.95;;
17987;SDS011;9119;50.932;5.342;2023-06-14T10:05:53;10.02;;;3.58;;
17987;SDS011;9119;50.932;5.342;2023-06-14T10:08:27;13.70;;;3.38;;
17987;SDS011;9119;50.932;5.342;2023-06-14T10:10:55;8.60;;;3.30;;
17987;SDS011;9119;50.932;5.342;2023-06-14T10:13:21;13.60;;;3.47;;
17987;SDS011;9119;50.932;5.342;2023-06-14T10:18:33;9.85;;;3.28;;
17987;SDS011;9119;50.932;5.342;2023-06-14T10:23:59;8.68;;;3.47;;
17987;SDS011;9119;50.932;5.342;2023-06-14T10:26:30;10.35;;;3.40;;
17987;SDS011;9119;50.932;5.342;2023-06-14T10:28:59;4.47;;;2.92;;
17987;SDS011;9119;50.932;5.342;2023-06-14T10:31:42;6.47;;;3.00;;
17987;SDS011;9119;50.932;5.342;2023-06-14T10:34:12;6.47;;;2.92;;
17987;SDS011;9119;50.932;5.342;2023-06-14T10:36:47;14.10;;;3.45;;
17987;SDS011;9119;50.932;5.342;2023-06-14T10:39:28;5.32;;;3.20;;
17987;SDS011;9119;50.932;5.342;2023-06-14T10:41:55;5.57;;;3.17;;
17987;SDS011;9119;50.932;5.342;2023-06-14T10:46:53;7.53;;;3.25;;
17987;SDS011;9119;50.932;5.342;2023-06-14T10:49:19;11.10;;;3.83;;
17987;SDS011;9119;50.932;5.342;2023-06-14T10:51:51;12.85;;;3.55;;
17987;SDS011;9119;50.932;5.342;2023-06-14T10:54:21;10.52;;;3.80;;
17987;SDS011;9119;50.932;5.342;2023-06-14T10:56:50;6.75;;;3.60;;
17987;SDS011;9119;50.932;5.342;2023-06-14T10:59:18;9.70;;;3.58;;
17987;SDS011;9119;50.932;5.342;2023-06-14T11:04:20;10.38;;;3.17;;
17987;SDS011;9119;50.932;5.342;2023-06-14T11:06:50;7.88;;;3.55;;
17987;SDS011;9119;50.932;5.342;2023-06-14T11:09:25;7.10;;;3.50;;
17987;SDS011;9119;50.932;5.342;2023-06-14T11:12:14;10.77;;;3.05;;
17987;SDS011;9119;50.932;5.342;2023-06-14T11:14:42;8.88;;;3.08;;
17987;SDS011;9119;50.932;5.342;2023-06-14T11:17:12;5.95;;;3.00;;
17987;SDS011;9119;50.932;5.342;2023-06-14T11:19:37;4.45;;;2.42;;
17987;SDS011;9119;50.932;5.342;2023-06-14T11:22:03;5.18;;;2.70;;
17987;SDS011;9119;50.932;5.342;2023-06-14T11:24:32;3.45;;;2.25;;
17987;SDS011;9119;50.932;5.342;2023-06-14T11:26:58;10.00;;;2.25;;
17987;SDS011;9119;50.932;5.342;2023-06-14T11:29:24;3.35;;;2.25;;
17987;SDS011;9119;50.932;5.342;2023-06-14T11:31:50;11.38;;;3.22;;
17987;SDS011;9119;50.932;5.342;2023-06-14T11:34:15;2.75;;;2.10;;
17987;SDS011;9119;50.932;5.342;2023-06-14T11:36:42;4.75;;;1.75;;
17987;SDS011;9119;50.932;5.342;2023-06-14T11:39:08;12.00;;;2.15;;
17987;SDS011;9119;50.932;5.342;2023-06-14T11:41:35;4.47;;;2.03;;
17987;SDS011;9119;50.932;5.342;2023-06-14T11:44:03;6.72;;;1.70;;
17987;SDS011;9119;50.932;5.342;2023-06-14T11:46:29;11.95;;;2.00;;
17987;SDS011;9119;50.932;5.342;2023-06-14T11:48:55;4.47;;;1.80;;
17987;SDS011;9119;50.932;5.342;2023-06-14T11:51:20;4.32;;;1.80;;
17987;SDS011;9119;50.932;5.342;2023-06-14T11:53:46;4.13;;;2.00;;
17987;SDS011;9119;50.932;5.342;2023-06-14T11:56:12;4.35;;;1.70;;
17987;SDS011;9119;50.932;5.342;2023-06-14T11:58:38;4.10;;;1.77;;
17987;SDS011;9119;50.932;5.342;2023-06-14T12:01:05;5.80;;;2.05;;
17987;SDS011;9119;50.932;5.342;2023-06-14T12:03:31;3.65;;;1.73;;
17987;SDS011;9119;50.932;5.342;2023-06-14T12:06:09;3.63;;;1.85;;
17987;SDS011;9119;50.932;5.342;2023-06-14T12:08:35;3.95;;;1.73;;
17987;SDS011;9119;50.932;5.342;2023-06-14T12:11:12;2.90;;;1.67;;
17987;SDS011;9119;50.932;5.342;2023-06-14T12:13:41;4.25;;;1.83;;
17987;SDS011;9119;50.932;5.342;2023-06-14T12:16:08;5.15;;;1.80;;
17987;SDS011;9119;50.932;5.342;2023-06-14T12:18:35;4.07;;;1.70;;
17987;SDS011;9119;50.932;5.342;2023-06-14T12:21:05;6.25;;;2.13;;
17987;SDS011;9119;50.932;5.342;2023-06-14T12:26:14;5.95;;;1.60;;
17987;SDS011;9119;50.932;5.342;2023-06-14T12:28:44;6.20;;;1.80;;
17987;SDS011;9119;50.932;5.342;2023-06-14T12:31:13;8.20;;;2.50;;
17987;SDS011;9119;50.932;5.342;2023-06-14T12:33:40;5.05;;;2.15;;
17987;SDS011;9119;50.932;5.342;2023-06-14T12:36:06;9.90;;;2.13;;
17987;SDS011;9119;50.932;5.342;2023-06-14T12:38:37;6.47;;;2.40;;
17987;SDS011;9119;50.932;5.342;2023-06-14T12:41:03;5.10;;;2.20;;
17987;SDS011;9119;50.932;5.342;2023-06-14T12:43:29;6.85;;;2.40;;
17987;SDS011;9119;50.932;5.342;2023-06-14T12:45:54;6.43;;;2.42;;
17987;SDS011;9119;50.932;5.342;2023-06-14T12:48:20;6.45;;;1.83;;
17987;SDS011;9119;50.932;5.342;2023-06-14T12:50:47;2.42;;;2.10;;
17987;SDS011;9119;50.932;5.342;2023-06-14T12:53:13;8.27;;;2.03;;
17987;SDS011;9119;50.932;5.342;2023-06-14T12:55:39;6.30;;;2.42;;
17987;SDS011;9119;50.932;5.342;2023-06-14T12:58:05;6.65;;;2.28;;
17987;SDS011;9119;50.932;5.342;2023-06-14T13:00:30;6.03;;;2.03;;
17987;SDS011;9119;50.932;5.342;2023-06-14T13:02:56;7.60;;;2.35;;
17987;SDS011;9119;50.932;5.342;2023-06-14T13:05:23;5.20;;;2.13;;
17987;SDS011;9119;50.932;5.342;2023-06-14T13:07:50;4.55;;;2.10;;
17987;SDS011;9119;50.932;5.342;2023-06-14T13:10:16;3.70;;;2.25;;
17987;SDS011;9119;50.932;5.342;2023-06-14T13:12:42;9.50;;;2.13;;
17987;SDS011;9119;50.932;5.342;2023-06-14T13:15:08;5.75;;;2.05;;
17987;SDS011;9119;50.932;5.342;2023-06-14T13:17:35;6.78;;;1.90;;
17987;SDS011;9119;50.932;5.342;2023-06-14T13:20:06;2.70;;;1.85;;
17987;SDS011;9119;50.932;5.342;2023-06-14T13:22:33;7.60;;;2.30;;
17987;SDS011;9119;50.932;5.342;2023-06-14T13:24:59;6.35;;;2.40;;
17987;SDS011;9119;50.932;5.342;2023-06-14T13:27:25;7.95;;;2.20;;
17987;SDS011;9119;50.932;5.342;2023-06-14T13:29:52;5.93;;;2.10;;
17987;SDS011;9119;50.932;5.342;2023-06-14T13:32:18;5.28;;;2.22;;
17987;SDS011;9119;50.932;5.342;2023-06-14T13:34:45;2.47;;;1.92;;
17987;SDS011;9119;50.932;5.342;2023-06-14T13:37:11;3.78;;;2.03;;
17987;SDS011;9119;50.932;5.342;2023-06-14T13:39:37;3.65;;;1.92;;
17987;SDS011;9119;50.932;5.342;2023-06-14T13:42:03;7.72;;;2.35;;
17987;SDS011;9119;50.932;5.342;2023-06-14T13:44:29;5.82;;;2.20;;
17987;SDS011;9119;50.932;5.342;2023-06-14T13:46:54;3.40;;;1.85;;
17987;SDS011;9119;50.932;5.342;2023-06-14T13:49:21;3.38;;;2.20;;
17987;SDS011;9119;50.932;5.342;2023-06-14T13:51:51;4.03;;;2.00;;
17987;SDS011;9119;50.932;5.342;2023-06-14T13:54:19;5.68;;;1.95;;
17987;SDS011;9119;50.932;5.342;2023-06-14T13:56:46;6.68;;;2.40;;
17987;SDS011;9119;50.932;5.342;2023-06-14T13:59:12;8.88;;;2.22;;
17987;SDS011;9119;50.932;5.342;2023-06-14T14:01:37;5.85;;;2.10;;
17987;SDS011;9119;50.932;5.342;2023-06-14T14:04:03;8.20;;;2.22;;
17987;SDS011;9119;50.932;5.342;2023-06-14T14:06:30;8.35;;;2.53;;
17987;SDS011;9119;50.932;5.342;2023-06-14T14:08:56;8.25;;;2.20;;
17987;SDS011;9119;50.932;5.342;2023-06-14T14:11:22;9.07;;;2.20;;
17987;SDS011;9119;50.932;5.342;2023-06-14T14:13:48;12.10;;;3.10;;
17987;SDS011;9119;50.932;5.342;2023-06-14T14:16:15;5.60;;;2.25;;
17987;SDS011;9119;50.932;5.342;2023-06-14T14:18:41;5.93;;;2.00;;
17987;SDS011;9119;50.932;5.342;2023-06-14T14:21:07;3.78;;;2.25;;
17987;SDS011;9119;50.932;5.342;2023-06-14T14:23:32;6.88;;;2.47;;
17987;SDS011;9119;50.932;5.342;2023-06-14T14:26:01;5.28;;;2.15;;
17987;SDS011;9119;50.932;5.342;2023-06-14T14:28:29;6.93;;;2.03;;
17987;SDS011;9119;50.932;5.342;2023-06-14T14:30:55;11.27;;;2.60;;
17987;SDS011;9119;50.932;5.342;2023-06-14T14:33:21;6.63;;;2.00;;
17987;SDS011;9119;50.932;5.342;2023-06-14T14:35:47;6.50;;;2.00;;
17987;SDS011;9119;50.932;5.342;2023-06-14T14:38:13;7.70;;;2.03;;
17987;SDS011;9119;50.932;5.342;2023-06-14T14:40:43;7.18;;;2.20;;
17987;SDS011;9119;50.932;5.342;2023-06-14T14:43:09;6.88;;;2.13;;
17987;SDS011;9119;50.932;5.342;2023-06-14T14:45:35;7.18;;;2.20;;
17987;SDS011;9119;50.932;5.342;2023-06-14T14:48:01;3.65;;;1.90;;
17987;SDS011;9119;50.932;5.342;2023-06-14T14:50:27;9.95;;;3.00;;
17987;SDS011;9119;50.932;5.342;2023-06-14T14:52:53;13.68;;;5.50;;
17987;SDS011;9119;50.932;5.342;2023-06-14T14:55:22;4.60;;;1.67;;
17987;SDS011;9119;50.932;5.342;2023-06-14T14:57:47;5.20;;;1.90;;
17987;SDS011;9119;50.932;5.342;2023-06-14T15:00:13;8.85;;;1.77;;
17987;SDS011;9119;50.932;5.342;2023-06-14T15:02:39;5.97;;;1.85;;
17987;SDS011;9119;50.932;5.342;2023-06-14T15:05:05;12.30;;;1.95;;
17987;SDS011;9119;50.932;5.342;2023-06-14T15:07:31;4.53;;;1.75;;
17987;SDS011;9119;50.932;5.342;2023-06-14T15:09:58;8.65;;;1.90;;
17987;SDS011;9119;50.932;5.342;2023-06-14T15:12:24;5.15;;;1.83;;